createdAt,value
2018-03-15T00:01:50.067Z,4.40
2018-03-15T00:04:17.532Z,4.40
2018-03-15T00:06:44.999Z,4.50
2018-03-15T00:09:12.455Z,4.50
2018-03-15T00:11:39.933Z,4.50
2018-03-15T00:14:07.384Z,4.40
2018-03-15T00:16:34.858Z,4.40
2018-03-15T00:19:03.080Z,4.40
2018-03-15T00:21:30.552Z,4.40
2018-03-15T00:23:58.016Z,4.50
2018-03-15T00:26:25.500Z,4.50
2018-03-15T00:28:53.721Z,4.50
2018-03-15T00:31:21.180Z,4.50
2018-03-15T00:33:48.632Z,4.50
2018-03-15T00:36:16.096Z,4.40
2018-03-15T00:38:43.548Z,4.40
2018-03-15T00:41:11.000Z,4.40
2018-03-15T00:43:38.458Z,4.40
2018-03-15T00:46:05.920Z,4.30
2018-03-15T00:48:33.401Z,4.30
2018-03-15T00:51:00.856Z,4.40
2018-03-15T00:53:28.325Z,4.20
2018-03-15T00:55:55.783Z,4.20
2018-03-15T00:58:23.244Z,4.20
2018-03-15T01:00:50.703Z,4.20
2018-03-15T01:03:18.167Z,4.20
2018-03-15T01:05:46.380Z,4.10
2018-03-15T01:08:13.849Z,4.10
2018-03-15T01:10:41.295Z,4.10
2018-03-15T01:13:08.764Z,4.10
2018-03-15T01:15:36.211Z,4.10
2018-03-15T01:18:03.667Z,4.20
2018-03-15T01:20:31.125Z,4.20
2018-03-15T01:22:58.588Z,4.20
2018-03-15T01:25:26.035Z,4.20
2018-03-15T01:27:53.514Z,4.30
2018-03-15T01:30:20.970Z,4.20
2018-03-15T01:32:48.437Z,4.30
2018-03-15T01:35:16.655Z,4.30
2018-03-15T01:37:44.123Z,4.20
2018-03-15T01:40:11.581Z,4.20
2018-03-15T01:42:39.035Z,4.10
2018-03-15T01:45:06.888Z,4.20
2018-03-15T01:47:34.340Z,4.10
2018-03-15T01:50:01.812Z,4.20
2018-03-15T01:52:29.259Z,4.20
2018-03-15T01:54:56.715Z,4.20
2018-03-15T01:57:24.174Z,4.10
2018-03-15T01:59:51.644Z,4.10
2018-03-15T02:02:19.868Z,4.20
2018-03-15T02:04:47.326Z,4.10
2018-03-15T02:07:14.780Z,4.20
2018-03-15T02:09:42.646Z,4.20
2018-03-15T02:12:10.132Z,4.20
2018-03-15T02:14:38.352Z,4.10
2018-03-15T02:17:07.325Z,4.00
2018-03-15T02:19:34.809Z,4.50
2018-03-15T02:22:02.703Z,3.90
2018-03-15T02:24:30.125Z,4.20
2018-03-15T02:26:57.977Z,4.10
2018-03-15T02:29:25.448Z,4.10
2018-03-15T02:31:53.688Z,4.20
2018-03-15T02:34:21.542Z,3.70
2018-03-15T02:36:49.760Z,4.30
2018-03-15T02:39:17.229Z,4.20
2018-03-15T02:41:44.692Z,4.10
2018-03-15T02:44:13.668Z,4.10
2018-03-15T02:46:41.883Z,4.20
2018-03-15T02:49:10.120Z,4.30
2018-03-15T02:51:37.571Z,4.30
2018-03-15T02:54:05.436Z,3.60
2018-03-15T02:56:32.904Z,4.20
2018-03-15T02:59:00.365Z,4.20
2018-03-15T03:01:27.831Z,4.10
2018-03-15T03:06:24.865Z,4.20
2018-03-15T03:08:52.324Z,4.20
2018-03-15T03:11:19.792Z,4.10
2018-03-15T03:13:47.261Z,4.20
2018-03-15T03:16:15.124Z,4.00
2018-03-15T03:18:42.969Z,4.00
2018-03-15T03:21:11.200Z,4.00
2018-03-15T03:23:38.651Z,3.50
2018-03-15T03:26:06.888Z,4.00
2018-03-15T03:28:34.732Z,4.10
2018-03-15T03:31:02.965Z,4.00
2018-03-15T03:33:30.815Z,3.90
2018-03-15T03:35:59.048Z,4.00
2018-03-15T03:38:26.495Z,4.00
2018-03-15T03:40:53.972Z,4.00
2018-03-15T03:43:21.838Z,4.00
2018-03-15T03:45:49.299Z,4.10
2018-03-15T03:48:16.764Z,4.10
2018-03-15T03:50:44.620Z,3.60
2018-03-15T03:53:12.086Z,4.40
2018-03-15T03:55:39.548Z,4.20
2018-03-15T03:58:07.768Z,4.30
2018-03-15T04:00:35.993Z,4.40
2018-03-15T04:03:03.456Z,4.60
2018-03-15T04:05:31.312Z,4.40
2018-03-15T04:07:59.544Z,4.40
2018-03-15T04:10:28.127Z,4.20
2018-03-15T04:12:55.585Z,4.10
2018-03-15T04:15:23.036Z,4.30
2018-03-15T04:17:51.267Z,4.30
2018-03-15T04:20:19.124Z,4.20
2018-03-15T04:22:48.100Z,4.30
2018-03-15T04:27:44.368Z,4.20
2018-03-15T04:30:12.598Z,4.40
2018-03-15T04:32:40.056Z,4.40
2018-03-15T04:35:07.504Z,4.30
2018-03-15T04:37:34.968Z,4.40
2018-03-15T04:40:02.424Z,4.40
2018-03-15T04:42:29.888Z,4.30
2018-03-15T04:44:57.361Z,4.30
2018-03-15T04:47:24.827Z,4.30
2018-03-15T04:49:53.556Z,4.40
2018-03-15T04:52:21.037Z,4.40
2018-03-15T04:54:48.495Z,4.50
2018-03-15T04:57:15.957Z,4.50
2018-03-15T04:59:43.416Z,4.50
2018-03-15T05:02:10.891Z,4.60
2018-03-15T05:04:38.355Z,4.50
2018-03-15T05:07:05.840Z,4.50
2018-03-15T05:09:33.293Z,4.50
2018-03-15T05:12:00.753Z,4.40
2018-03-15T05:14:28.212Z,4.50
2018-03-15T05:16:55.665Z,4.60
2018-03-15T05:19:23.125Z,4.60
2018-03-15T05:21:51.352Z,4.60
2018-03-15T05:24:18.813Z,4.50
2018-03-15T05:26:46.277Z,4.50
2018-03-15T05:29:13.733Z,4.50
2018-03-15T05:31:41.192Z,4.60
2018-03-15T05:34:08.701Z,4.60
2018-03-15T05:36:36.156Z,4.60
2018-03-15T05:39:03.618Z,4.60
2018-03-15T05:41:31.100Z,4.60
2018-03-15T05:43:58.567Z,4.60
2018-03-15T05:46:26.020Z,4.60
2018-03-15T05:48:53.476Z,4.70
2018-03-15T05:51:20.966Z,4.60
2018-03-15T05:53:48.808Z,4.70
2018-03-15T05:56:16.257Z,4.70
2018-03-15T05:58:43.720Z,4.70
2018-03-15T06:01:11.178Z,4.60
2018-03-15T06:03:38.636Z,4.70
2018-03-15T06:06:06.871Z,4.80
2018-03-15T06:08:34.341Z,4.80
2018-03-15T06:11:01.832Z,4.80
2018-03-15T06:13:30.095Z,4.80
2018-03-15T06:15:57.552Z,4.70
2018-03-15T06:18:25.790Z,4.80
2018-03-15T06:20:53.255Z,4.80
2018-03-15T06:23:20.712Z,4.80
2018-03-15T06:25:48.184Z,4.80
2018-03-15T06:28:15.636Z,4.80
2018-03-15T06:30:43.095Z,4.90
2018-03-15T06:33:10.552Z,4.90
2018-03-15T06:35:38.013Z,5.00
2018-03-15T06:38:05.465Z,5.00
2018-03-15T06:40:32.929Z,5.20
2018-03-15T06:43:00.376Z,5.30
2018-03-15T06:45:27.837Z,5.40
2018-03-15T06:47:55.292Z,5.60
2018-03-15T06:50:22.764Z,5.60
2018-03-15T06:52:50.984Z,5.80
2018-03-15T06:55:18.440Z,5.80
2018-03-15T06:57:45.915Z,5.90
2018-03-15T07:00:13.378Z,6.00
2018-03-15T07:02:40.827Z,5.90
2018-03-15T07:05:08.300Z,6.00
2018-03-15T07:07:35.760Z,6.10
2018-03-15T07:10:03.632Z,6.10
2018-03-15T07:12:31.083Z,6.10
2018-03-15T07:14:58.544Z,6.20
2018-03-15T07:17:26.013Z,6.30
2018-03-15T07:19:54.290Z,6.30
2018-03-15T07:22:22.520Z,6.30
2018-03-15T07:24:49.993Z,6.20
2018-03-15T07:27:17.457Z,6.40
2018-03-15T07:29:44.912Z,6.40
2018-03-15T07:32:12.375Z,6.40
2018-03-15T07:34:39.824Z,6.40
2018-03-15T07:37:07.284Z,6.60
2018-03-15T07:39:34.739Z,6.60
2018-03-15T07:42:02.203Z,6.60
2018-03-15T07:44:29.648Z,6.70
2018-03-15T07:46:57.119Z,6.80
2018-03-15T07:49:25.344Z,6.70
2018-03-15T07:51:52.796Z,6.60
2018-03-15T07:54:20.264Z,6.70
2018-03-15T07:56:47.738Z,6.70
2018-03-15T07:59:15.194Z,6.80
2018-03-15T08:01:42.661Z,6.80
2018-03-15T08:04:10.517Z,7.00
2018-03-15T08:06:39.193Z,7.30
2018-03-15T08:09:06.683Z,7.30
2018-03-15T08:11:34.933Z,7.30
2018-03-15T08:14:02.396Z,7.30
2018-03-15T08:16:29.864Z,7.30
2018-03-15T08:18:57.316Z,7.30
2018-03-15T08:21:24.774Z,7.20
2018-03-15T08:23:52.227Z,7.30
2018-03-15T08:26:19.687Z,7.30
2018-03-15T08:28:47.551Z,7.40
2018-03-15T08:31:15.848Z,7.70
2018-03-15T08:33:44.064Z,7.70
2018-03-15T08:36:11.959Z,7.60
2018-03-15T08:38:39.504Z,7.60
2018-03-15T08:41:06.964Z,7.80
2018-03-15T08:43:34.428Z,7.80
2018-03-15T08:46:01.892Z,7.80
2018-03-15T08:48:29.356Z,7.70
2018-03-15T08:50:56.804Z,7.80
2018-03-15T08:53:24.257Z,8.00
2018-03-15T08:55:51.716Z,8.00
2018-03-15T08:58:19.723Z,8.00
2018-03-15T09:00:47.181Z,8.10
2018-03-15T09:03:14.628Z,8.10
2018-03-15T09:05:42.076Z,8.30
2018-03-15T09:08:09.547Z,8.80
2018-03-15T09:10:36.903Z,9.00
2018-03-15T09:13:04.356Z,9.00
2018-03-15T09:15:31.817Z,9.30
2018-03-15T09:17:59.301Z,9.60
2018-03-15T09:20:26.302Z,10.10
2018-03-15T09:22:54.082Z,10.30
2018-03-15T09:25:21.537Z,10.50
2018-03-15T09:27:48.988Z,10.20
2018-03-15T09:30:16.446Z,10.60
2018-03-15T09:32:43.912Z,11.10
2018-03-15T09:35:11.401Z,11.40
2018-03-15T09:37:39.252Z,11.50
2018-03-15T09:40:06.712Z,11.50
2018-03-15T09:42:33.718Z,11.30
2018-03-15T09:45:00.731Z,11.20
2018-03-15T09:47:28.209Z,10.90
2018-03-15T09:49:56.444Z,10.90
2018-03-15T09:52:23.924Z,10.60
2018-03-15T09:54:51.392Z,11.00
2018-03-15T09:57:18.848Z,10.60
2018-03-15T09:59:46.337Z,10.60
2018-03-15T10:02:13.375Z,10.70
2018-03-15T10:04:40.407Z,10.70
2018-03-15T10:07:08.185Z,11.00
2018-03-15T10:09:35.210Z,11.00
2018-03-15T10:12:02.213Z,10.90
2018-03-15T10:14:29.696Z,11.30
2018-03-15T10:16:57.168Z,11.30
2018-03-15T10:19:25.409Z,11.40
2018-03-15T10:21:52.874Z,11.30
2018-03-15T10:24:19.889Z,11.40
2018-03-15T10:26:46.894Z,12.00
2018-03-15T10:29:15.124Z,11.80
2018-03-15T10:31:42.589Z,11.80
2018-03-15T10:34:09.644Z,11.70
2018-03-15T10:36:37.114Z,11.20
2018-03-15T10:39:04.590Z,11.40
2018-03-15T10:41:32.361Z,11.80
2018-03-15T10:44:00.151Z,11.70
2018-03-15T10:46:27.162Z,11.70
2018-03-15T10:48:54.196Z,11.70
2018-03-15T10:51:21.220Z,11.20
2018-03-15T10:53:48.238Z,10.90
2018-03-15T10:56:16.495Z,11.30
2018-03-15T10:58:43.511Z,11.30
2018-03-15T11:01:10.530Z,11.60
2018-03-15T11:03:43.352Z,11.90
2018-03-15T11:06:10.820Z,11.60
2018-03-15T11:08:37.842Z,11.60
2018-03-15T11:11:04.860Z,11.30
2018-03-15T11:13:32.005Z,11.60
2018-03-15T11:15:59.007Z,11.80
2018-03-15T11:18:26.465Z,11.80
2018-03-15T11:20:53.490Z,11.80
2018-03-15T11:23:21.268Z,12.80
2018-03-15T11:25:48.738Z,12.60
2018-03-15T11:28:16.212Z,12.60
2018-03-15T11:30:43.689Z,12.90
2018-03-15T11:33:11.151Z,13.10
2018-03-15T11:35:38.620Z,12.80
2018-03-15T11:38:06.084Z,12.50
2018-03-15T11:40:33.545Z,12.40
2018-03-15T11:43:01.002Z,12.40
2018-03-15T11:45:28.490Z,12.90
2018-03-15T11:47:55.499Z,13.40
2018-03-15T11:50:22.521Z,13.60
2018-03-15T11:52:49.534Z,14.00
2018-03-15T11:55:17.024Z,13.80
2018-03-15T11:57:44.497Z,13.60
2018-03-15T12:00:11.951Z,14.10
2018-03-15T12:02:38.980Z,14.20
2018-03-15T12:05:05.988Z,14.20
2018-03-15T12:07:33.011Z,14.40
2018-03-15T12:10:00.461Z,15.00
2018-03-15T12:12:27.476Z,15.30
2018-03-15T12:14:54.948Z,15.30
2018-03-15T12:17:22.408Z,15.50
2018-03-15T12:19:49.861Z,15.20
2018-03-15T12:22:17.327Z,15.40
2018-03-15T12:24:44.338Z,15.90
2018-03-15T12:27:11.843Z,14.70
2018-03-15T12:29:40.070Z,14.70
2018-03-15T12:32:07.547Z,14.70
2018-03-15T12:34:35.017Z,15.00
2018-03-15T12:37:02.484Z,14.50
2018-03-15T12:39:30.713Z,14.10
2018-03-15T12:41:57.740Z,13.90
2018-03-15T12:44:25.204Z,13.90
2018-03-15T12:46:52.666Z,13.80
2018-03-15T12:49:20.115Z,13.90
2018-03-15T12:51:47.596Z,13.80
2018-03-15T12:54:15.054Z,13.90
2018-03-15T12:56:42.531Z,14.40
2018-03-15T12:59:09.987Z,14.50
2018-03-15T13:01:37.442Z,14.90
2018-03-15T13:04:05.673Z,14.20
2018-03-15T13:06:33.128Z,14.20
2018-03-15T13:09:01.352Z,13.90
2018-03-15T13:11:29.195Z,13.90
2018-03-15T13:13:56.660Z,13.80
2018-03-15T13:16:24.131Z,13.60
2018-03-15T13:18:51.585Z,13.20
2018-03-15T13:21:19.040Z,12.90
2018-03-15T13:23:46.508Z,12.90
2018-03-15T13:26:14.373Z,13.50
2018-03-15T13:28:41.832Z,13.50
2018-03-15T13:31:10.059Z,13.80
2018-03-15T13:33:37.534Z,13.80
2018-03-15T13:36:04.983Z,13.90
2018-03-15T13:38:32.471Z,13.50
2018-03-15T13:41:00.697Z,13.70
2018-03-15T13:43:28.172Z,13.70
2018-03-15T13:45:55.630Z,13.70
2018-03-15T13:48:23.085Z,13.60
2018-03-15T13:50:51.367Z,13.60
2018-03-15T13:53:18.854Z,13.40
2018-03-15T13:55:47.067Z,13.10
2018-03-15T13:58:14.533Z,13.10
2018-03-15T14:00:41.980Z,13.10
2018-03-15T14:03:09.445Z,13.10
2018-03-15T14:05:36.899Z,13.10
2018-03-15T14:08:04.361Z,13.00
2018-03-15T14:10:31.825Z,12.90
2018-03-15T14:12:59.292Z,12.90
2018-03-15T14:15:26.748Z,12.70
2018-03-15T14:17:54.203Z,12.60
2018-03-15T14:20:21.677Z,12.60
2018-03-15T14:22:49.133Z,12.60
2018-03-15T14:25:16.588Z,12.60
2018-03-15T14:27:44.032Z,12.60
2018-03-15T14:30:11.492Z,12.60
2018-03-15T14:32:38.952Z,12.50
2018-03-15T14:35:06.426Z,12.50
2018-03-15T14:37:34.660Z,12.40
2018-03-15T14:40:02.132Z,12.40
2018-03-15T14:42:29.589Z,12.30
2018-03-15T14:44:57.055Z,12.30
2018-03-15T14:47:24.504Z,12.20
2018-03-15T14:49:51.968Z,12.10
2018-03-15T14:52:19.424Z,12.10
2018-03-15T14:54:46.884Z,12.10
2018-03-15T14:57:14.342Z,12.10
2018-03-15T14:59:42.592Z,11.90
2018-03-15T15:02:10.057Z,11.90
2018-03-15T15:04:37.528Z,11.90
2018-03-15T15:07:05.786Z,11.90
2018-03-15T15:09:33.259Z,11.90
2018-03-15T15:12:01.126Z,11.90
2018-03-15T15:14:28.643Z,11.80
2018-03-15T15:16:56.069Z,11.80
2018-03-15T15:19:23.533Z,11.80
2018-03-15T15:21:51.051Z,11.80
2018-03-15T15:24:18.485Z,11.70
2018-03-15T15:26:45.952Z,11.70
2018-03-15T15:29:13.630Z,11.70
2018-03-15T15:31:41.887Z,11.70
2018-03-15T15:34:09.355Z,11.60
2018-03-15T15:36:37.604Z,11.60
2018-03-15T15:39:05.196Z,11.60
2018-03-15T15:41:32.678Z,11.60
2018-03-15T15:44:00.132Z,11.60
2018-03-15T15:46:27.604Z,11.60
2018-03-15T15:48:55.068Z,11.60
2018-03-15T15:51:22.552Z,11.60
2018-03-15T15:53:50.013Z,11.60
2018-03-15T15:56:17.472Z,11.60
2018-03-15T15:58:44.928Z,11.60
2018-03-15T16:01:12.458Z,11.60
2018-03-15T16:03:39.860Z,11.60
2018-03-15T16:06:08.097Z,11.50
2018-03-15T16:08:35.547Z,11.40
2018-03-15T16:11:03.011Z,11.40
2018-03-15T16:13:30.468Z,11.40
2018-03-15T16:15:57.943Z,11.40
2018-03-15T16:18:25.403Z,11.30
2018-03-15T16:20:52.868Z,11.30
2018-03-15T16:23:20.320Z,11.30
2018-03-15T16:25:47.812Z,11.20
2018-03-15T16:28:16.028Z,11.10
2018-03-15T16:30:43.490Z,11.10
2018-03-15T16:33:10.947Z,11.10
2018-03-15T16:35:38.408Z,11.10
2018-03-15T16:38:05.879Z,11.20
2018-03-15T16:40:33.483Z,11.20
2018-03-15T16:43:00.957Z,11.20
2018-03-15T16:45:28.424Z,11.20
2018-03-15T16:47:55.900Z,11.20
2018-03-15T16:50:23.353Z,11.20
2018-03-15T16:52:50.827Z,11.20
2018-03-15T16:55:19.975Z,11.20
2018-03-15T16:57:47.548Z,11.20
2018-03-15T17:00:15.059Z,11.20
2018-03-15T17:02:42.500Z,11.20
2018-03-15T17:05:10.723Z,11.30
2018-03-15T17:07:38.192Z,11.20
2018-03-15T17:10:05.655Z,11.30
2018-03-15T17:12:33.116Z,11.30
2018-03-15T17:15:00.608Z,11.30
2018-03-15T17:17:28.832Z,11.30
2018-03-15T17:19:56.302Z,11.20
2018-03-15T17:22:23.792Z,11.20
2018-03-15T17:24:52.097Z,11.20
2018-03-15T17:27:19.688Z,11.30
2018-03-15T17:29:47.137Z,11.20
2018-03-15T17:32:14.600Z,11.20
2018-03-15T17:34:42.071Z,11.20
2018-03-15T17:37:10.272Z,11.10
2018-03-15T17:39:38.503Z,11.00
2018-03-15T17:42:06.780Z,10.90
2018-03-15T17:44:34.308Z,11.00
2018-03-15T17:47:02.225Z,10.80
2018-03-15T17:49:29.886Z,10.80
2018-03-15T17:51:58.276Z,10.80
2018-03-15T17:54:25.737Z,10.80
2018-03-15T17:56:53.960Z,10.80
2018-03-15T17:59:21.419Z,10.70
2018-03-15T18:01:48.870Z,10.80
2018-03-15T18:04:17.096Z,10.60
2018-03-15T18:06:45.320Z,10.50
2018-03-15T18:09:12.785Z,10.50
2018-03-15T18:11:40.254Z,10.50
2018-03-15T18:14:07.724Z,10.40
2018-03-15T18:16:35.176Z,10.40
2018-03-15T18:19:02.645Z,10.30
2018-03-15T18:21:30.118Z,10.30
2018-03-15T18:23:58.347Z,10.00
2018-03-15T18:26:25.822Z,10.00
2018-03-15T18:28:53.283Z,9.90
2018-03-15T18:31:20.734Z,9.80
2018-03-15T18:33:48.205Z,9.70
2018-03-15T18:36:15.668Z,9.70
2018-03-15T18:38:43.908Z,9.70
2018-03-15T18:41:11.364Z,9.70
2018-03-15T18:43:38.837Z,9.70
2018-03-15T18:46:06.288Z,9.70
2018-03-15T18:48:34.140Z,9.50
2018-03-15T18:51:01.596Z,9.50
2018-03-15T18:53:29.043Z,9.50
2018-03-15T18:55:56.902Z,9.40
2018-03-15T18:58:24.355Z,9.50
2018-03-15T19:00:51.807Z,9.50
2018-03-15T19:03:19.277Z,9.60
2018-03-15T19:05:46.735Z,9.60
2018-03-15T19:08:14.201Z,9.50
2018-03-15T19:10:41.652Z,9.50
2018-03-15T19:13:09.114Z,9.50
2018-03-15T19:15:36.955Z,9.40
2018-03-15T19:18:05.237Z,9.30
2018-03-15T19:20:32.239Z,9.30
2018-03-15T19:23:00.453Z,9.20
2018-03-15T19:25:27.907Z,9.10
2018-03-15T19:27:55.523Z,9.00
2018-03-15T19:30:23.840Z,8.90
2018-03-15T19:32:51.304Z,8.90
2018-03-15T19:35:18.772Z,8.90
2018-03-15T19:37:46.336Z,8.80
2018-03-15T19:40:13.784Z,8.70
2018-03-15T19:42:41.231Z,9.00
2018-03-15T19:45:08.691Z,9.00
2018-03-15T19:47:36.168Z,9.00
2018-03-15T19:50:04.157Z,8.80
2018-03-15T19:52:31.683Z,8.80
2018-03-15T19:54:59.356Z,8.60
2018-03-15T19:57:26.832Z,8.60
2018-03-15T19:59:54.630Z,8.60
2018-03-15T20:02:23.130Z,8.60
2018-03-15T20:04:51.955Z,8.50
2018-03-15T20:07:19.588Z,8.50
2018-03-15T20:09:47.052Z,8.40
2018-03-15T20:12:14.500Z,8.50
2018-03-15T20:14:41.963Z,8.40
2018-03-15T20:17:10.312Z,8.40
2018-03-15T20:19:37.794Z,8.40
2018-03-15T20:22:05.256Z,8.50
2018-03-15T20:24:32.715Z,8.50
2018-03-15T20:27:00.168Z,8.70
2018-03-15T20:29:27.625Z,9.00
2018-03-15T20:31:55.266Z,9.30
2018-03-15T20:34:23.109Z,9.60
2018-03-15T20:36:50.589Z,9.80
2018-03-15T20:39:23.801Z,9.80
2018-03-15T20:41:51.259Z,9.90
2018-03-15T20:44:19.317Z,9.90
2018-03-15T20:46:52.498Z,10.00
2018-03-15T20:49:20.063Z,9.90
2018-03-15T20:51:47.519Z,10.00
2018-03-15T20:54:14.976Z,9.90
2018-03-15T20:56:42.437Z,9.90
2018-03-15T20:59:09.884Z,9.80
2018-03-15T21:01:37.340Z,9.90
2018-03-15T21:04:04.788Z,9.80
2018-03-15T21:06:33.011Z,9.80
2018-03-15T21:09:00.462Z,9.80
2018-03-15T21:11:27.912Z,9.70
2018-03-15T21:13:55.367Z,9.70
2018-03-15T21:16:22.833Z,9.70
2018-03-15T21:18:50.279Z,9.70
2018-03-15T21:21:17.752Z,9.70
2018-03-15T21:23:45.205Z,9.70
2018-03-15T21:26:12.672Z,9.70
2018-03-15T21:28:40.915Z,9.70
2018-03-15T21:31:08.352Z,9.70
2018-03-15T21:33:35.811Z,9.60
2018-03-15T21:36:04.404Z,9.60
2018-03-15T21:38:31.856Z,9.60
2018-03-15T21:40:59.700Z,9.60
2018-03-15T21:43:27.163Z,9.60
2018-03-15T21:45:54.615Z,9.60
2018-03-15T21:48:22.070Z,9.50
2018-03-15T21:50:49.540Z,9.50
2018-03-15T21:53:16.996Z,9.60
2018-03-15T21:55:44.447Z,9.50
2018-03-15T21:58:11.908Z,9.50
2018-03-15T22:00:39.375Z,9.50
2018-03-15T22:03:07.171Z,9.50
2018-03-15T22:05:34.650Z,9.50
2018-03-15T22:08:02.914Z,9.50
2018-03-15T22:10:31.176Z,9.50
2018-03-15T22:12:58.684Z,9.40
2018-03-15T22:15:26.186Z,9.40
2018-03-15T22:17:55.198Z,9.20
2018-03-15T22:20:23.453Z,9.20
2018-03-15T22:22:50.960Z,9.10
2018-03-15T22:25:18.452Z,9.10
2018-03-15T22:27:45.946Z,9.10
2018-03-15T22:30:13.463Z,9.10
2018-03-15T22:32:40.936Z,9.10
2018-03-15T22:35:08.429Z,9.10
2018-03-15T22:37:36.691Z,9.10
2018-03-15T22:40:04.965Z,9.10
2018-03-15T22:42:33.225Z,9.10
2018-03-15T22:45:00.723Z,9.10
2018-03-15T22:47:28.222Z,9.10
2018-03-15T22:49:55.727Z,9.00
2018-03-15T22:52:23.217Z,9.00
2018-03-15T22:54:50.721Z,9.10
2018-03-15T22:57:18.983Z,9.00
2018-03-15T22:59:46.473Z,9.10
2018-03-15T23:02:13.963Z,9.00
2018-03-15T23:04:41.473Z,9.00
2018-03-15T23:07:09.728Z,9.20
2018-03-15T23:09:37.221Z,9.20
2018-03-15T23:12:04.716Z,9.10
2018-03-15T23:14:32.212Z,9.00
2018-03-15T23:17:00.470Z,9.00
2018-03-15T23:19:27.963Z,9.00
2018-03-15T23:21:55.443Z,9.00
2018-03-15T23:24:22.941Z,8.90
2018-03-15T23:26:50.427Z,8.90
2018-03-15T23:29:18.689Z,8.80
2018-03-15T23:31:46.945Z,8.80
2018-03-15T23:34:14.436Z,8.70
2018-03-15T23:36:41.930Z,8.70
2018-03-15T23:39:09.417Z,8.80
2018-03-15T23:41:36.909Z,8.80
2018-03-15T23:44:04.411Z,8.70
2018-03-15T23:46:31.911Z,8.50
2018-03-15T23:49:00.174Z,8.40
2018-03-15T23:51:29.174Z,8.40
2018-03-15T23:53:57.429Z,8.30
2018-03-15T23:56:24.925Z,8.30
2018-03-15T23:58:52.414Z,8.30
